createdAt,value
2023-03-11T00:02:20.256Z,89787.22
2023-03-11T00:04:47.019Z,89789.78
2023-03-11T00:07:13.663Z,89797.81
2023-03-11T00:09:40.266Z,89825.41
2023-03-11T00:12:07.289Z,89827.56
2023-03-11T00:14:33.970Z,89830.56
2023-03-11T00:17:00.585Z,89820.53
2023-03-11T00:19:27.209Z,89827.16
2023-03-11T00:21:53.948Z,89822.44
2023-03-11T00:24:20.613Z,89833.53
2023-03-11T00:26:47.267Z,89828.94
2023-03-11T00:29:13.882Z,89836.97
2023-03-11T00:31:40.490Z,89827.81
2023-03-11T00:34:07.218Z,89832.53
2023-03-11T00:36:33.955Z,89843.28
2023-03-11T00:39:02.062Z,89840.13
2023-03-11T00:41:28.793Z,89853.44
2023-03-11T00:43:55.454Z,89866.09
2023-03-11T00:46:22.231Z,89858.50
2023-03-11T00:48:50.997Z,89846.06
2023-03-11T00:51:17.663Z,89848.34
2023-03-11T00:53:44.417Z,89845.81
2023-03-11T00:56:12.782Z,89836.53
2023-03-11T00:58:39.678Z,89830.66
2023-03-11T01:01:10.477Z,89821.50
2023-03-11T01:03:37.458Z,89810.91
2023-03-11T01:06:04.521Z,89810.06
2023-03-11T01:08:31.692Z,89795.84
2023-03-11T01:10:58.775Z,89796.09
2023-03-11T01:13:26.049Z,89783.25
2023-03-11T01:15:52.756Z,89773.97
2023-03-11T01:18:20.481Z,89762.06
2023-03-11T01:20:47.211Z,89755.84
2023-03-11T01:23:14.261Z,89748.97
2023-03-11T01:25:40.883Z,89746.91
2023-03-11T01:28:08.423Z,89726.72
2023-03-11T01:30:36.360Z,89727.59
2023-03-11T01:33:03.429Z,89725.94
2023-03-11T01:35:32.461Z,89723.53
2023-03-11T01:37:59.199Z,89718.88
2023-03-11T01:40:28.633Z,89718.50
2023-03-11T01:42:55.326Z,89712.75
2023-03-11T01:45:39.909Z,89710.97
2023-03-11T01:48:06.540Z,89711.47
2023-03-11T01:50:36.907Z,89696.75
2023-03-11T01:53:03.744Z,89693.44
2023-03-11T01:55:30.464Z,89707.53
2023-03-11T01:57:57.061Z,89697.97
2023-03-11T02:00:23.752Z,89699.06
2023-03-11T02:02:54.495Z,89699.81
2023-03-11T02:05:24.479Z,89693.75
2023-03-11T02:07:51.278Z,89681.25
2023-03-11T02:10:18.200Z,89685.72
2023-03-11T02:12:45.449Z,89688.69
2023-03-11T02:15:12.194Z,89693.75
2023-03-11T02:17:39.176Z,89708.22
2023-03-11T02:20:12.653Z,89704.03
2023-03-11T02:22:42.523Z,89710.78
2023-03-11T02:25:34.904Z,89709.00
2023-03-11T02:28:01.834Z,89709.34
2023-03-11T02:30:28.451Z,89707.16
2023-03-11T02:32:55.143Z,89700.06
2023-03-11T02:35:21.767Z,89705.34
2023-03-11T02:37:49.610Z,89712.50
2023-03-11T02:40:22.476Z,89727.22
2023-03-11T02:42:56.421Z,89728.75
2023-03-11T02:45:25.091Z,89725.50
2023-03-11T02:47:52.993Z,89716.91
2023-03-11T02:50:19.699Z,89723.97
2023-03-11T02:52:48.112Z,89714.38
2023-03-11T02:55:16.152Z,89706.31
2023-03-11T02:57:43.086Z,89695.19
2023-03-11T03:00:16.719Z,89709.34
2023-03-11T03:02:43.831Z,89685.63
2023-03-11T03:05:10.815Z,89710.66
2023-03-11T03:07:37.493Z,89689.69
2023-03-11T03:10:05.531Z,89689.53
2023-03-11T03:12:32.239Z,89689.41
2023-03-11T03:14:58.985Z,89693.47
2023-03-11T03:17:25.624Z,89690.09
2023-03-11T03:19:52.382Z,89704.78
2023-03-11T03:22:19.139Z,89699.56
2023-03-11T03:24:45.890Z,89707.41
2023-03-11T03:27:12.580Z,89717.41
2023-03-11T03:29:39.152Z,89722.44
2023-03-11T03:32:06.288Z,89719.38
2023-03-11T03:34:33.162Z,89720.69
2023-03-11T03:36:59.860Z,89713.97
2023-03-11T03:39:28.208Z,89721.56
2023-03-11T03:41:56.043Z,89729.88
2023-03-11T03:44:22.753Z,89726.81
2023-03-11T03:46:49.391Z,89733.34
2023-03-11T03:49:16.217Z,89732.38
2023-03-11T03:51:42.835Z,89733.59
2023-03-11T03:54:09.458Z,89741.19
2023-03-11T03:56:36.147Z,89748.59
2023-03-11T03:59:02.873Z,89758.59
2023-03-11T04:01:29.543Z,89777.44
2023-03-11T04:03:56.229Z,89771.22
2023-03-11T04:06:24.488Z,89777.97
2023-03-11T04:08:51.893Z,89772.72
2023-03-11T04:11:18.602Z,89769.66
2023-03-11T04:13:45.400Z,89767.38
2023-03-11T04:16:22.394Z,89779.34
2023-03-11T04:18:49.134Z,89789.25
2023-03-11T04:21:15.797Z,89779.69
2023-03-11T04:23:42.408Z,89776.66
2023-03-11T04:26:09.164Z,89777.75
2023-03-11T04:28:35.798Z,89771.44
2023-03-11T04:31:02.613Z,89774.38
2023-03-11T04:33:29.328Z,89779.06
2023-03-11T04:35:56.149Z,89788.41
2023-03-11T04:38:22.942Z,89783.50
2023-03-11T04:40:49.725Z,89774.25
2023-03-11T04:43:16.357Z,89783.81
2023-03-11T04:45:43.014Z,89784.47
2023-03-11T04:48:09.722Z,89789.50
2023-03-11T04:50:36.349Z,89800.25
2023-03-11T04:53:03.049Z,89795.78
2023-03-11T04:55:29.617Z,89803.28
2023-03-11T04:57:56.221Z,89796.25
2023-03-11T05:00:24.947Z,89798.00
2023-03-11T05:02:51.863Z,89807.28
2023-03-11T05:05:21.452Z,89806.13
2023-03-11T05:07:48.348Z,89817.28
2023-03-11T05:10:15.071Z,89805.16
2023-03-11T05:12:41.736Z,89802.88
2023-03-11T05:15:08.525Z,89799.69
2023-03-11T05:17:35.086Z,89802.97
2023-03-11T05:20:01.749Z,89800.31
2023-03-11T05:22:28.354Z,89807.00
2023-03-11T05:24:55.038Z,89807.88
2023-03-11T05:27:21.671Z,89812.97
2023-03-11T05:29:48.357Z,89815.50
2023-03-11T05:32:15.077Z,89822.41
2023-03-11T05:34:42.051Z,89810.09
2023-03-11T05:37:08.825Z,89817.31
2023-03-11T05:39:37.655Z,89833.34
2023-03-11T05:42:07.574Z,89826.00
2023-03-11T05:44:34.417Z,89826.22
2023-03-11T05:47:01.176Z,89837.34
2023-03-11T05:49:27.870Z,89834.72
2023-03-11T05:51:56.754Z,89837.75
2023-03-11T05:54:24.821Z,89842.31
2023-03-11T05:56:51.424Z,89836.88
2023-03-11T05:59:18.177Z,89840.66
2023-03-11T06:01:44.937Z,89835.31
2023-03-11T06:04:11.974Z,89844.16
2023-03-11T06:06:40.193Z,89821.81
2023-03-11T06:09:07.233Z,89836.44
2023-03-11T06:11:33.798Z,89837.06
2023-03-11T06:14:00.482Z,89842.09
2023-03-11T06:16:27.187Z,89839.28
2023-03-11T06:18:53.950Z,89846.91
2023-03-11T06:21:21.915Z,89836.25
2023-03-11T06:23:48.695Z,89837.13
2023-03-11T06:26:17.065Z,89836.47
2023-03-11T06:28:44.540Z,89835.81
2023-03-11T06:31:22.476Z,89839.31
2023-03-11T06:33:49.144Z,89839.31
2023-03-11T06:36:16.837Z,89843.34
2023-03-11T06:38:43.509Z,89833.44
2023-03-11T06:41:10.401Z,89831.22
2023-03-11T06:43:37.072Z,89842.56
2023-03-11T06:46:12.102Z,89838.00
2023-03-11T06:48:38.889Z,89842.56
2023-03-11T06:51:05.778Z,89832.97
2023-03-11T06:53:32.382Z,89834.25
2023-03-11T06:56:02.732Z,89829.69
2023-03-11T06:58:29.946Z,89833.84
2023-03-11T07:01:01.185Z,89835.16
2023-03-11T07:03:28.115Z,89823.22
2023-03-11T07:05:54.769Z,89837.81
2023-03-11T07:08:21.440Z,89829.50
2023-03-11T07:10:59.271Z,89831.69
2023-03-11T07:13:25.875Z,89832.31
2023-03-11T07:16:01.353Z,89839.28
2023-03-11T07:18:28.349Z,89840.09
2023-03-11T07:20:55.088Z,89853.13
2023-03-11T07:23:21.805Z,89833.41
2023-03-11T07:25:48.478Z,89832.78
2023-03-11T07:28:15.319Z,89835.41
2023-03-11T07:30:44.515Z,89821.44
2023-03-11T07:33:11.249Z,89817.53
2023-03-11T07:35:37.908Z,89822.00
2023-03-11T07:38:05.760Z,89826.41
2023-03-11T07:40:32.468Z,89810.38
2023-03-11T07:42:59.076Z,89811.03
2023-03-11T07:45:25.683Z,89806.78
2023-03-11T07:47:52.581Z,89813.59
2023-03-11T07:50:22.193Z,89806.78
2023-03-11T07:52:48.900Z,89801.75
2023-03-11T07:55:15.530Z,89799.19
2023-03-11T07:57:42.819Z,89799.59
2023-03-11T08:00:10.455Z,89791.09
2023-03-11T08:02:37.156Z,89792.06
2023-03-11T08:05:03.937Z,89793.56
2023-03-11T08:07:32.337Z,89787.19
2023-03-11T08:09:59.106Z,89783.69
2023-03-11T08:12:25.767Z,89777.09
2023-03-11T08:14:52.437Z,89791.91
2023-03-11T08:17:19.113Z,89780.41
2023-03-11T08:19:45.819Z,89779.19
2023-03-11T08:22:12.449Z,89770.00
2023-03-11T08:24:39.144Z,89760.59
2023-03-11T08:27:05.960Z,89760.97
2023-03-11T08:29:32.524Z,89752.88
2023-03-11T08:31:59.271Z,89758.50
2023-03-11T08:34:27.646Z,89757.88
2023-03-11T08:36:54.492Z,89748.63
2023-03-11T08:39:21.106Z,89747.63
2023-03-11T08:41:47.782Z,89737.47
2023-03-11T08:44:14.490Z,89743.25
2023-03-11T08:46:41.203Z,89736.84
2023-03-11T08:49:07.922Z,89734.81
2023-03-11T08:51:34.904Z,89727.16
2023-03-11T08:54:01.871Z,89715.91
2023-03-11T08:56:28.548Z,89717.44
2023-03-11T08:58:55.305Z,89715.03
2023-03-11T09:01:23.115Z,89716.44
2023-03-11T09:03:49.742Z,89718.00
2023-03-11T09:06:16.819Z,89730.53
2023-03-11T09:08:44.446Z,89724.09
2023-03-11T09:11:13.537Z,89709.97
2023-03-11T09:13:41.185Z,89716.66
2023-03-11T09:16:10.011Z,89716.78
2023-03-11T09:18:36.723Z,89719.34
2023-03-11T09:21:03.477Z,89719.69
2023-03-11T09:23:30.203Z,89724.38
2023-03-11T09:25:56.880Z,89709.31
2023-03-11T09:28:23.717Z,89716.44
2023-03-11T09:30:50.364Z,89719.72
2023-03-11T09:33:17.090Z,89719.84
2023-03-11T09:35:43.782Z,89709.53
2023-03-11T09:38:10.457Z,89716.31
2023-03-11T09:40:51.713Z,89731.53
2023-03-11T09:43:42.476Z,89731.47
2023-03-11T09:46:51.252Z,89719.69
2023-03-11T09:49:51.783Z,89728.38
2023-03-11T09:52:28.603Z,89740.38
2023-03-11T09:54:55.309Z,89742.25
2023-03-11T09:57:27.016Z,89729.03
2023-03-11T09:59:53.744Z,89727.94
2023-03-11T10:02:22.541Z,89736.88
2023-03-11T10:04:55.614Z,89727.88
2023-03-11T10:07:25.976Z,89730.84
2023-03-11T10:09:59.012Z,89724.66
2023-03-11T10:12:38.669Z,89734.88
2023-03-11T10:15:23.578Z,89730.41
2023-03-11T10:18:08.723Z,89732.69
2023-03-11T10:21:06.186Z,89729.03
2023-03-11T10:23:57.838Z,89718.34
2023-03-11T10:26:34.125Z,89724.88
2023-03-11T10:29:18.864Z,89727.69
2023-03-11T10:31:54.947Z,89725.97
2023-03-11T10:34:48.055Z,89725.16
2023-03-11T10:37:18.029Z,89714.09
2023-03-11T10:39:45.658Z,89709.16
2023-03-11T10:42:14.084Z,89711.53
2023-03-11T10:44:41.921Z,89713.03
2023-03-11T10:47:20.245Z,89716.63
2023-03-11T10:49:46.999Z,89716.69
2023-03-11T10:52:13.695Z,89714.34
2023-03-11T10:54:46.443Z,89728.31
2023-03-11T10:57:25.791Z,89739.97
2023-03-11T10:59:59.812Z,89726.56
2023-03-11T11:02:42.625Z,89740.69
2023-03-11T11:05:20.217Z,89742.72
2023-03-11T11:08:07.684Z,89742.31
2023-03-11T11:10:35.756Z,89746.28
2023-03-11T11:13:12.197Z,89748.91
2023-03-11T11:15:58.071Z,89751.53
2023-03-11T11:18:43.875Z,89747.16
2023-03-11T11:21:27.712Z,89747.53
2023-03-11T11:24:15.796Z,89736.03
2023-03-11T11:26:42.624Z,89742.84
2023-03-11T11:29:15.017Z,89739.69
2023-03-11T11:31:43.481Z,89727.50
2023-03-11T11:34:30.076Z,89725.41
2023-03-11T11:36:57.414Z,89714.78
2023-03-11T11:39:24.071Z,89732.66
2023-03-11T11:41:50.765Z,89718.09
2023-03-11T11:44:19.653Z,89708.53
2023-03-11T11:47:13.065Z,89703.69
2023-03-11T11:49:39.633Z,89710.34
2023-03-11T11:52:13.029Z,89707.94
2023-03-11T11:54:48.050Z,89696.38
2023-03-11T11:57:18.897Z,89693.06
2023-03-11T11:59:45.483Z,89685.94
2023-03-11T12:02:30.839Z,89691.84
2023-03-11T12:05:16.613Z,89690.25
2023-03-11T12:08:02.787Z,89675.50
2023-03-11T12:10:34.846Z,89687.91
2023-03-11T12:13:08.492Z,89683.81
2023-03-11T12:15:40.997Z,89677.38
2023-03-11T12:18:13.994Z,89675.28
2023-03-11T12:20:49.855Z,89675.41
2023-03-11T12:23:20.503Z,89686.50
2023-03-11T12:25:59.629Z,89699.22
2023-03-11T12:28:45.537Z,89702.78
2023-03-11T12:31:12.434Z,89697.75
2023-03-11T12:33:51.176Z,89692.75
2023-03-11T12:36:24.875Z,89701.47
2023-03-11T12:38:51.603Z,89702.66
2023-03-11T12:41:41.255Z,89687.97
2023-03-11T12:44:28.814Z,89673.41
2023-03-11T12:46:58.698Z,89677.28
2023-03-11T12:49:27.236Z,89668.59
2023-03-11T12:52:05.370Z,89670.78
2023-03-11T12:54:31.889Z,89670.03
2023-03-11T12:57:00.190Z,89667.50
2023-03-11T13:00:07.816Z,89661.72
2023-03-11T13:02:37.089Z,89669.81
2023-03-11T13:05:21.802Z,89656.69
2023-03-11T13:07:57.169Z,89660.00
2023-03-11T13:10:42.502Z,89670.13
2023-03-11T13:13:35.248Z,89679.63
2023-03-11T13:16:25.189Z,89685.78
2023-03-11T13:18:51.890Z,89681.38
2023-03-11T13:21:27.774Z,89679.22
2023-03-11T13:24:36.472Z,89681.63
2023-03-11T13:27:05.552Z,89691.91
2023-03-11T13:30:00.106Z,89693.44
2023-03-11T13:32:57.590Z,89713.91
2023-03-11T13:35:42.524Z,89690.06
2023-03-11T13:38:24.254Z,89689.06
2023-03-11T13:40:52.591Z,89685.13
2023-03-11T13:43:23.574Z,89687.94
2023-03-11T13:46:38.672Z,89683.16
2023-03-11T13:49:08.294Z,89678.09
2023-03-11T13:51:45.241Z,89674.59
2023-03-11T13:54:20.089Z,89680.69
2023-03-11T13:57:00.097Z,89684.34
2023-03-11T13:59:29.259Z,89688.16
2023-03-11T14:02:08.049Z,89688.91
2023-03-11T14:04:36.440Z,89693.28
2023-03-11T14:07:22.089Z,89706.31
2023-03-11T14:09:48.713Z,89711.69
2023-03-11T14:12:17.373Z,89712.19
2023-03-11T14:14:48.987Z,89718.56
2023-03-11T14:17:16.993Z,89711.97
2023-03-11T14:19:44.725Z,89724.53
2023-03-11T14:22:11.517Z,89730.88
2023-03-11T14:24:39.083Z,89747.72
2023-03-11T14:27:29.388Z,89755.66
2023-03-11T14:29:56.386Z,89763.88
2023-03-11T14:32:31.021Z,89766.78
2023-03-11T14:34:57.879Z,89777.25
2023-03-11T14:37:33.064Z,89786.88
2023-03-11T14:39:59.905Z,89798.44
2023-03-11T14:42:35.805Z,89820.16
2023-03-11T14:45:02.386Z,89834.94
2023-03-11T14:47:39.301Z,89812.09
2023-03-11T14:50:06.990Z,89822.22
2023-03-11T14:52:40.826Z,89827.66
2023-03-11T14:55:13.165Z,89832.28
2023-03-11T14:57:54.684Z,89822.56
2023-03-11T15:00:24.015Z,89821.78
2023-03-11T15:03:13.008Z,89825.72
2023-03-11T15:05:52.549Z,89825.72
2023-03-11T15:08:20.001Z,89828.31
2023-03-11T15:11:05.498Z,89826.09
2023-03-11T15:13:32.259Z,89833.47
2023-03-11T15:16:00.072Z,89834.03
2023-03-11T15:18:32.402Z,89837.81
2023-03-11T15:21:14.533Z,89832.19
2023-03-11T15:23:49.114Z,89837.41
2023-03-11T15:26:29.130Z,89839.16
2023-03-11T15:29:15.665Z,89839.66
2023-03-11T15:31:44.888Z,89831.44
2023-03-11T15:34:25.176Z,89834.38
2023-03-11T15:36:52.922Z,89841.09
2023-03-11T15:39:22.389Z,89837.69
2023-03-11T15:42:13.730Z,89838.84
2023-03-11T15:44:56.768Z,89843.63
2023-03-11T15:47:23.430Z,89836.22
2023-03-11T15:49:50.410Z,89839.34
2023-03-11T15:52:17.270Z,89842.97
2023-03-11T15:54:54.505Z,89836.00
2023-03-11T15:57:26.589Z,89839.38
2023-03-11T15:59:54.194Z,89844.00
2023-03-11T16:02:25.939Z,89845.41
2023-03-11T16:04:52.975Z,89849.59
2023-03-11T16:07:32.848Z,89868.53
2023-03-11T16:10:05.803Z,89881.16
2023-03-11T16:12:32.671Z,89899.56
2023-03-11T16:14:59.295Z,89915.47
2023-03-11T16:17:26.595Z,89919.03
2023-03-11T16:19:54.187Z,89916.00
2023-03-11T16:22:24.145Z,89920.34
2023-03-11T16:24:51.296Z,89931.69
2023-03-11T16:27:18.338Z,89935.94
2023-03-11T16:29:45.977Z,89935.13
2023-03-11T16:32:12.920Z,89939.03
2023-03-11T16:34:40.026Z,89937.97
2023-03-11T16:37:07.047Z,89949.84
2023-03-11T16:39:34.274Z,89952.09
2023-03-11T16:42:00.971Z,89973.16
2023-03-11T16:44:27.622Z,89969.53
2023-03-11T16:46:54.379Z,89970.78
2023-03-11T16:49:21.153Z,89974.16
2023-03-11T16:51:47.873Z,89984.41
2023-03-11T16:54:14.535Z,89994.72
2023-03-11T16:56:41.946Z,89997.97
2023-03-11T16:59:08.849Z,89993.31
2023-03-11T17:01:38.672Z,90005.28
2023-03-11T17:04:06.655Z,90018.59
2023-03-11T17:06:35.572Z,90029.56
2023-03-11T17:09:02.242Z,90026.63
2023-03-11T17:11:30.676Z,90034.50
2023-03-11T17:14:13.665Z,90040.13
2023-03-11T17:16:42.617Z,90035.16
2023-03-11T17:19:09.270Z,90042.59
2023-03-11T17:21:35.862Z,90056.56
2023-03-11T17:24:02.524Z,90049.03
2023-03-11T17:26:31.090Z,90053.84
2023-03-11T17:28:57.837Z,90070.81
2023-03-11T17:31:24.602Z,90072.03
2023-03-11T17:33:51.402Z,90076.25
2023-03-11T17:36:18.182Z,90090.31
2023-03-11T17:38:46.041Z,90085.19
2023-03-11T17:41:16.744Z,90089.81
2023-03-11T17:43:43.827Z,90102.09
2023-03-11T17:46:14.149Z,90101.97
2023-03-11T17:48:41.757Z,90098.50
2023-03-11T17:51:10.279Z,90102.91
2023-03-11T17:53:38.311Z,90109.50
2023-03-11T17:56:05.624Z,90115.97
2023-03-11T17:58:32.353Z,90121.19
2023-03-11T18:00:59.309Z,90124.41
2023-03-11T18:03:26.537Z,90123.25
2023-03-11T18:05:57.501Z,90137.13
2023-03-11T18:08:24.143Z,90144.09
2023-03-11T18:10:55.336Z,90141.88
2023-03-11T18:13:22.043Z,90152.56
2023-03-11T18:16:16.525Z,90155.78
2023-03-11T18:18:43.460Z,90165.56
2023-03-11T18:21:15.110Z,90165.91
2023-03-11T18:23:42.062Z,90180.59
2023-03-11T18:26:09.392Z,90178.81
2023-03-11T18:28:36.157Z,90174.91
2023-03-11T18:31:10.119Z,90180.38
2023-03-11T18:33:36.822Z,90175.91
2023-03-11T18:36:23.042Z,90193.66
2023-03-11T18:38:50.662Z,90195.66
2023-03-11T18:41:17.460Z,90204.09
2023-03-11T18:43:44.090Z,90210.63
2023-03-11T18:46:13.349Z,90214.19
2023-03-11T18:48:40.059Z,90214.19
2023-03-11T18:51:07.249Z,90225.84
2023-03-11T18:53:34.304Z,90233.31
2023-03-11T18:56:02.691Z,90233.06
2023-03-11T18:58:29.490Z,90237.50
2023-03-11T19:00:56.380Z,90244.84
2023-03-11T19:03:23.030Z,90254.84
2023-03-11T19:05:50.875Z,90258.25
2023-03-11T19:08:20.291Z,90256.94
2023-03-11T19:10:47.398Z,90273.81
2023-03-11T19:13:14.649Z,90275.28
2023-03-11T19:15:43.516Z,90274.22
2023-03-11T19:18:10.238Z,90271.53
2023-03-11T19:20:36.925Z,90285.53
2023-03-11T19:23:05.140Z,90288.66
2023-03-11T19:25:32.724Z,90292.06
2023-03-11T19:27:59.375Z,90295.81
2023-03-11T19:30:26.132Z,90299.94
2023-03-11T19:32:53.084Z,90303.81
2023-03-11T19:35:21.115Z,90305.19
2023-03-11T19:37:48.320Z,90314.41
2023-03-11T19:40:15.473Z,90326.03
2023-03-11T19:42:42.163Z,90327.44
2023-03-11T19:45:09.098Z,90335.50
2023-03-11T19:47:35.820Z,90336.59
2023-03-11T19:50:02.525Z,90333.91
2023-03-11T19:52:29.252Z,90329.44
2023-03-11T19:54:56.022Z,90349.44
2023-03-11T19:57:22.654Z,90346.00
2023-03-11T19:59:49.303Z,90363.72
2023-03-11T20:02:16.628Z,90359.47
2023-03-11T20:04:43.593Z,90379.19
2023-03-11T20:07:10.266Z,90370.06
2023-03-11T20:09:36.875Z,90383.22
2023-03-11T20:12:03.653Z,90389.13
2023-03-11T20:14:30.417Z,90391.13
2023-03-11T20:16:57.239Z,90395.34
2023-03-11T20:19:23.882Z,90386.63
2023-03-11T20:21:50.645Z,90395.63
2023-03-11T20:24:17.430Z,90395.41
2023-03-11T20:26:44.104Z,90408.53
2023-03-11T20:29:10.860Z,90397.28
2023-03-11T20:31:37.577Z,90411.06
2023-03-11T20:34:04.311Z,90408.16
2023-03-11T20:36:33.034Z,90415.88
2023-03-11T20:38:59.819Z,90405.94
2023-03-11T20:41:26.966Z,90409.03
2023-03-11T20:43:55.192Z,90406.63
2023-03-11T20:46:21.995Z,90405.78
2023-03-11T20:48:48.792Z,90419.81
2023-03-11T20:51:19.488Z,90418.56
2023-03-11T20:53:47.122Z,90418.75
2023-03-11T20:56:16.278Z,90433.34
2023-03-11T20:58:43.405Z,90433.31
2023-03-11T21:01:19.912Z,90435.06
2023-03-11T21:03:47.129Z,90425.34
2023-03-11T21:06:18.716Z,90437.84
2023-03-11T21:08:45.684Z,90428.84
2023-03-11T21:11:12.616Z,90428.91
2023-03-11T21:13:39.413Z,90431.88
2023-03-11T21:16:06.522Z,90441.03
2023-03-11T21:18:33.301Z,90448.53
2023-03-11T21:21:00.153Z,90458.69
2023-03-11T21:23:26.877Z,90475.69
2023-03-11T21:26:00.389Z,90467.59
2023-03-11T21:28:27.207Z,90468.19
2023-03-11T21:31:14.509Z,90458.34
2023-03-11T21:33:41.518Z,90459.66
2023-03-11T21:39:03.884Z,90451.69
2023-03-11T21:41:30.729Z,90452.75
2023-03-11T21:43:57.630Z,90452.94
2023-03-11T21:46:27.040Z,90463.78
2023-03-11T21:48:53.869Z,90461.38
2023-03-11T21:51:20.799Z,90467.44
2023-03-11T21:53:47.854Z,90462.97
2023-03-11T21:56:14.831Z,90449.88
2023-03-11T21:58:41.777Z,90453.00
2023-03-11T22:01:08.934Z,90445.88
2023-03-11T22:03:36.073Z,90442.25
2023-03-11T22:06:07.673Z,90446.28
2023-03-11T22:08:34.557Z,90451.84
2023-03-11T22:11:01.675Z,90454.34
2023-03-11T22:13:28.455Z,90453.94
2023-03-11T22:15:55.163Z,90464.81
2023-03-11T22:18:21.938Z,90449.81
2023-03-11T22:20:48.855Z,90457.34
2023-03-11T22:23:15.578Z,90452.88
2023-03-11T22:25:42.724Z,90452.44
2023-03-11T22:28:12.925Z,90451.81
2023-03-11T22:30:39.622Z,90450.63
2023-03-11T22:33:06.846Z,90456.16
2023-03-11T22:35:33.604Z,90461.00
2023-03-11T22:38:00.348Z,90460.91
2023-03-11T22:40:27.384Z,90460.56
2023-03-11T22:42:54.137Z,90455.41
2023-03-11T22:45:22.391Z,90456.81
2023-03-11T22:47:50.286Z,90463.53
2023-03-11T22:50:17.882Z,90465.31
2023-03-11T22:52:44.578Z,90467.31
2023-03-11T22:55:11.289Z,90475.56
2023-03-11T22:57:39.026Z,90475.66
2023-03-11T23:00:17.304Z,90469.06
2023-03-11T23:02:47.868Z,90491.13
2023-03-11T23:05:14.855Z,90462.38
2023-03-11T23:07:41.988Z,90469.28
2023-03-11T23:10:09.607Z,90482.03
2023-03-11T23:12:36.556Z,90484.09
2023-03-11T23:15:07.851Z,90486.91
2023-03-11T23:17:34.575Z,90498.16
2023-03-11T23:20:01.455Z,90497.44
2023-03-11T23:22:28.077Z,90513.69
2023-03-11T23:24:54.805Z,90509.59
2023-03-11T23:27:22.348Z,90515.19
2023-03-11T23:29:50.562Z,90515.44
2023-03-11T23:32:17.292Z,90515.88
2023-03-11T23:34:45.451Z,90503.72
2023-03-11T23:37:12.177Z,90500.66
2023-03-11T23:39:38.763Z,90504.59
2023-03-11T23:42:22.419Z,90507.91
2023-03-11T23:44:51.494Z,90502.75
2023-03-11T23:47:18.240Z,90524.72
2023-03-11T23:49:44.850Z,90523.78
2023-03-11T23:52:11.486Z,90523.22
2023-03-11T23:54:38.165Z,90544.13
2023-03-11T23:57:04.818Z,90529.03
2023-03-11T23:59:31.400Z,90539.06
